Biggsville, Illinois
Current Conditions -  °F | °C
As of 7:53 PM on Friday 31 Oct 2014 (Local Time) from KBRL Reporting Station
Clear Clear  
Wind Chill: 30°   Ceiling: Unl
Heat Index: 36°   Visibility: 10mi
Dew Point: 21°   Wind: 8mph
Humidity: 55%   Direction: 350°N
Pressure: 30.41"   Gusts: NA
Location:  40.85°N, 90.86°W
Report Text: KBRL 010053Z AUTO 35007KT 10SM CLR 02/M06 A3041 RMK AO2 SLP306 T00221061
Loading
Personal Weather Stations






























Interactive Weather Map
Tropical Storm Tracking
New forecast layout! Learn more

10-Day Weather Forecast

Advertisements
Track Severe Weather on mobile